Time;durP1;ratioP1;P1;durP2;ratioP2;P2;SDS_P1;SDS_P2;PMS_P1;PMS_P2;Temp;Humidity;BMP_temperature;BMP_pressure;BME280_temperature;BME280_humidity;BME280_pressure;Samples;Min_cycle;Max_cycle;Signal;HPM_P1;HPM_P2
2023/10/04 00:01:41;;;;;;;5.57;3.58;;;;;12.90;97396.00;;;;8280137;28;20614;-67
2023/10/04 00:05:45;;;;;;;4.43;3.83;;;;;12.80;97388.00;;;;8277823;28;20325;-67
2023/10/04 00:09:48;;;;;;;5.93;3.65;;;;;12.70;97391.00;;;;8271055;28;20288;-68
2023/10/04 00:13:51;;;;;;;4.53;3.78;;;;;12.60;97401.00;;;;8281087;28;20296;-67
2023/10/04 00:17:56;;;;;;;6.40;4.13;;;;;12.50;97406.00;;;;8276494;28;20210;-67
2023/10/04 00:21:59;;;;;;;7.60;3.97;;;;;12.40;97414.00;;;;8271783;28;20270;-68
2023/10/04 00:26:02;;;;;;;8.25;3.80;;;;;12.40;97409.00;;;;8279602;28;20717;-67
2023/10/04 00:30:10;;;;;;;6.22;4.32;;;;;12.30;97414.00;;;;8280340;28;20229;-67
2023/10/04 00:34:15;;;;;;;8.85;4.40;;;;;12.20;97407.00;;;;8279182;28;20255;-67
2023/10/04 00:38:19;;;;;;;7.80;4.45;;;;;12.20;97405.00;;;;8280974;28;20908;-68
2023/10/04 00:42:22;;;;;;;9.65;4.53;;;;;12.10;97407.00;;;;8276040;28;20213;-68
2023/10/04 00:46:26;;;;;;;8.98;4.35;;;;;12.10;97400.00;;;;8281367;28;20279;-67
2023/10/04 00:50:32;;;;;;;8.93;4.55;;;;;12.00;97408.00;;;;8280734;28;20264;-67
2023/10/04 00:54:35;;;;;;;6.47;4.35;;;;;12.00;97400.00;;;;8284245;28;20215;-66
2023/10/04 00:58:40;;;;;;;8.32;4.93;;;;;12.10;97410.00;;;;8280506;28;20222;-66
2023/10/04 01:02:43;;;;;;;10.10;4.80;;;;;12.20;97413.00;;;;8276825;28;20808;-67
2023/10/04 01:06:48;;;;;;;6.88;4.60;;;;;12.40;97417.00;;;;8286238;28;20676;-67
2023/10/04 01:10:54;;;;;;;6.63;4.65;;;;;12.60;97414.00;;;;8288941;28;20204;-68
2023/10/04 01:15:12;;;;;;;7.97;4.50;;;;;12.70;97414.00;;;;8286584;28;20279;-67
2023/10/04 01:19:15;;;;;;;9.85;4.88;;;;;12.70;97431.00;;;;8287121;28;20202;-68
2023/10/04 01:23:20;;;;;;;6.30;3.92;;;;;12.70;97420.00;;;;8285212;28;20198;-67
2023/10/04 01:27:26;;;;;;;7.72;4.63;;;;;12.70;97417.00;;;;8286032;28;20233;-68
2023/10/04 01:31:33;;;;;;;5.38;4.10;;;;;12.70;97419.00;;;;8286134;28;20211;-67
2023/10/04 01:35:36;;;;;;;6.88;4.57;;;;;12.80;97411.00;;;;8286645;28;20205;-68
2023/10/04 01:39:44;;;;;;;7.03;4.30;;;;;12.80;97401.00;;;;8285897;28;21003;-67
2023/10/04 01:43:53;;;;;;;7.85;4.85;;;;;12.80;97408.00;;;;8279395;28;20818;-68
2023/10/04 01:47:56;;;;;;;6.68;4.75;;;;;12.80;97408.00;;;;8285138;28;20259;-67
2023/10/04 01:51:59;;;;;;;8.30;4.53;;;;;12.80;97415.00;;;;8286409;28;20240;-67
2023/10/04 01:56:05;;;;;;;6.45;4.00;;;;;12.70;97418.00;;;;8281205;28;20719;-68
2023/10/04 02:00:11;;;;;;;7.10;3.85;;;;;12.70;97414.00;;;;8280854;28;20201;-67
2023/10/04 02:04:14;;;;;;;8.15;3.80;;;;;12.60;97414.00;;;;8283762;28;20229;-68
2023/10/04 02:08:17;;;;;;;7.07;4.07;;;;;12.60;97418.00;;;;8282074;28;20257;-68
2023/10/04 02:12:22;;;;;;;7.65;4.22;;;;;12.50;97410.00;;;;8283904;28;20859;-68
2023/10/04 02:16:26;;;;;;;8.38;4.15;;;;;12.50;97408.00;;;;8284079;28;20209;-68
2023/10/04 02:20:33;;;;;;;6.50;3.55;;;;;12.40;97410.00;;;;8285959;28;20713;-67
2023/10/04 02:24:38;;;;;;;8.07;4.07;;;;;12.30;97403.00;;;;8281256;28;20698;-67
2023/10/04 02:28:45;;;;;;;5.55;4.15;;;;;12.20;97410.00;;;;8284525;28;20592;-67
2023/10/04 02:32:48;;;;;;;6.45;3.92;;;;;12.20;97410.00;;;;8284566;28;20696;-67
2023/10/04 02:36:54;;;;;;;6.47;3.90;;;;;12.10;97414.00;;;;8286319;28;20213;-67
2023/10/04 02:40:57;;;;;;;8.05;4.03;;;;;12.00;97415.00;;;;8283987;28;20292;-68
2023/10/04 02:45:05;;;;;;;8.13;4.10;;;;;11.90;97413.00;;;;8281500;28;20300;-68
2023/10/04 02:49:10;;;;;;;5.53;4.30;;;;;11.80;97415.00;;;;8284118;28;20216;-67
2023/10/04 02:53:16;;;;;;;6.63;4.07;;;;;11.70;97420.00;;;;8284586;28;20204;-68
2023/10/04 02:57:19;;;;;;;5.95;4.07;;;;;11.60;97421.00;;;;8283461;28;20193;-67
2023/10/04 03:01:24;;;;;;;4.38;3.55;;;;;11.60;97416.00;;;;8316933;22;20232;-67
2023/10/04 03:05:31;;;;;;;7.03;4.32;;;;;11.60;97421.00;;;;8313486;28;20723;-67
2023/10/04 03:09:37;;;;;;;7.05;4.00;;;;;11.50;97415.00;;;;8318498;28;20828;-67
2023/10/04 03:13:40;;;;;;;8.20;4.47;;;;;11.50;97417.00;;;;8313734;28;20324;-67
2023/10/04 03:17:46;;;;;;;5.32;3.60;;;;;11.50;97417.00;;;;8314209;28;20227;-67
2023/10/04 03:21:51;;;;;;;9.18;4.30;;;;;11.50;97421.00;;;;8316026;28;20286;-67
2023/10/04 03:25:56;;;;;;;9.45;4.05;;;;;11.40;97427.00;;;;8310365;28;20201;-67
2023/10/04 03:30:01;;;;;;;9.23;3.97;;;;;11.30;97426.00;;;;8315212;28;20864;-64
2023/10/04 03:34:07;;;;;;;9.02;4.13;;;;;11.20;97421.00;;;;8305654;28;20197;-64
2023/10/04 03:38:11;;;;;;;4.78;3.60;;;;;11.10;97416.00;;;;8306859;28;20649;-64
2023/10/04 03:42:16;;;;;;;8.48;4.35;;;;;11.00;97416.00;;;;8312615;28;20237;-64
2023/10/04 03:46:19;;;;;;;9.80;4.88;;;;;10.90;97411.00;;;;8309197;28;20935;-63
2023/10/04 03:50:25;;;;;;;12.27;4.80;;;;;10.90;97403.00;;;;8311287;28;20225;-63
2023/10/04 03:54:28;;;;;;;11.93;4.70;;;;;11.00;97409.00;;;;8308860;28;20200;-63
2023/10/04 03:58:34;;;;;;;8.38;4.35;;;;;11.00;97407.00;;;;8308331;28;20200;-68
2023/10/04 04:02:37;;;;;;;14.75;5.40;;;;;11.10;97405.00;;;;8306226;28;20241;-67
2023/10/04 04:06:42;;;;;;;10.35;5.20;;;;;11.20;97399.00;;;;8312975;28;20201;-66
2023/10/04 04:10:46;;;;;;;11.45;5.38;;;;;11.20;97408.00;;;;8310770;28;20215;-66
2023/10/04 04:14:51;;;;;;;9.23;5.38;;;;;11.20;97407.00;;;;8313441;28;20201;-66
2023/10/04 04:18:55;;;;;;;10.13;5.38;;;;;11.20;97394.00;;;;8308562;28;20721;-66
2023/10/04 04:23:00;;;;;;;10.38;5.20;;;;;11.20;97395.00;;;;8314897;28;20197;-67
2023/10/04 04:27:03;;;;;;;12.43;5.40;;;;;11.10;97399.00;;;;8310885;28;20371;-66
2023/10/04 04:31:14;;;;;;;14.25;5.82;;;;;11.00;97398.00;;;;8314684;28;20203;-66
2023/10/04 04:35:30;;;;;;;12.00;6.25;;;;;11.00;97405.00;;;;8309606;28;20558;-67
2023/10/04 04:39:39;;;;;;;10.27;5.75;;;;;11.00;97414.00;;;;8314706;28;20220;-67
2023/10/04 04:43:43;;;;;;;13.68;6.28;;;;;10.90;97411.00;;;;8313929;28;20203;-67
2023/10/04 04:47:46;;;;;;;11.95;5.28;;;;;10.80;97413.00;;;;8315569;28;20804;-67
2023/10/04 04:51:49;;;;;;;12.20;4.75;;;;;10.50;97414.00;;;;8313241;28;20562;-67
2023/10/04 04:55:54;;;;;;;10.45;4.85;;;;;10.30;97409.00;;;;8313544;28;20221;-67
2023/10/04 04:59:57;;;;;;;14.00;5.17;;;;;10.10;97407.00;;;;8315416;28;20809;-67
2023/10/04 05:04:00;;;;;;;10.27;4.45;;;;;9.90;97414.00;;;;8313250;28;20231;-67
2023/10/04 05:08:05;;;;;;;14.95;5.00;;;;;9.80;97421.00;;;;8308851;28;20248;-67
2023/10/04 05:12:11;;;;;;;9.35;5.10;;;;;9.60;97430.00;;;;8313566;28;21950;-67
2023/10/04 05:16:14;;;;;;;11.93;4.97;;;;;9.50;97421.00;;;;8304436;28;20213;-67
2023/10/04 05:20:21;;;;;;;12.60;5.15;;;;;9.40;97412.00;;;;8314264;28;20205;-67
2023/10/04 05:24:24;;;;;;;12.98;5.25;;;;;9.40;97410.00;;;;8313008;28;20225;-67
2023/10/04 05:28:29;;;;;;;26.90;5.73;;;;;9.40;97415.00;;;;8314717;28;20225;-66
2023/10/04 05:32:32;;;;;;;14.55;5.55;;;;;9.30;97413.00;;;;8311220;28;22205;-67
2023/10/04 05:36:39;;;;;;;10.53;5.90;;;;;9.30;97426.00;;;;8312917;28;20305;-67
2023/10/04 05:40:43;;;;;;;8.90;4.72;;;;;9.30;97440.00;;;;8312880;28;20212;-67
2023/10/04 05:44:48;;;;;;;7.83;4.83;;;;;9.20;97440.00;;;;8312834;28;20321;-67
2023/10/04 05:48:51;;;;;;;13.38;6.28;;;;;9.00;97439.00;;;;8309528;28;20232;-67
2023/10/04 05:52:57;;;;;;;11.53;6.03;;;;;9.10;97447.00;;;;8309684;28;20795;-69
2023/10/04 05:57:02;;;;;;;10.65;5.32;;;;;9.20;97455.00;;;;8312445;28;20212;-69
2023/10/04 06:01:09;;;;;;;10.50;5.93;;;;;9.20;97458.00;;;;8312702;28;20237;-69
2023/10/04 06:05:14;;;;;;;13.97;5.83;;;;;9.30;97466.00;;;;8316728;28;20608;-68
2023/10/04 06:09:27;;;;;;;15.33;6.20;;;;;9.30;97472.00;;;;8316567;28;20591;-68
2023/10/04 06:13:30;;;;;;;13.00;6.37;;;;;9.30;97476.00;;;;8316745;28;20201;-68
2023/10/04 06:17:38;;;;;;;14.40;6.87;;;;;9.40;97466.00;;;;8318599;28;20284;-68
2023/10/04 06:21:44;;;;;;;16.83;8.50;;;;;9.70;97470.00;;;;8316790;28;20766;-68
2023/10/04 06:25:48;;;;;;;16.43;7.50;;;;;9.90;97473.00;;;;8316767;28;20236;-69
2023/10/04 06:29:51;;;;;;;17.10;7.97;;;;;10.10;97477.00;;;;8312840;28;20261;-68
2023/10/04 06:33:57;;;;;;;14.10;6.78;;;;;10.20;97480.00;;;;8315633;28;21095;-67
2023/10/04 06:38:02;;;;;;;10.73;6.53;;;;;10.40;97480.00;;;;8312123;28;20285;-68
2023/10/04 06:42:05;;;;;;;12.20;7.07;;;;;10.50;97480.00;;;;8318309;28;20939;-69
2023/10/04 06:46:08;;;;;;;9.75;6.38;;;;;10.60;97482.00;;;;8315800;28;20193;-68
2023/10/04 06:50:18;;;;;;;18.50;6.97;;;;;10.80;97471.00;;;;8310608;28;20234;-68
2023/10/04 06:54:21;;;;;;;13.95;7.93;;;;;11.00;97474.00;;;;8315630;28;20198;-68
2023/10/04 06:58:25;;;;;;;13.00;7.20;;;;;11.30;97479.00;;;;8312290;28;20193;-68
2023/10/04 07:02:28;;;;;;;11.65;7.18;;;;;11.50;97469.00;;;;8314288;28;20799;-68
2023/10/04 07:06:33;;;;;;;15.07;7.75;;;;;11.70;97469.00;;;;8307221;28;20308;-68
2023/10/04 07:10:36;;;;;;;15.80;7.18;;;;;12.00;97470.00;;;;8312839;28;20314;-67
2023/10/04 07:14:40;;;;;;;15.65;8.02;;;;;12.20;97474.00;;;;8313721;28;20197;-68
2023/10/04 07:18:43;;;;;;;14.20;7.60;;;;;12.40;97471.00;;;;8315495;28;20309;-66
2023/10/04 07:22:50;;;;;;;16.13;7.93;;;;;12.50;97478.00;;;;8313017;28;20292;-66
2023/10/04 07:26:55;;;;;;;11.20;6.03;;;;;12.60;97488.00;;;;8317457;28;20197;-66
2023/10/04 07:31:00;;;;;;;11.57;6.07;;;;;12.60;97478.00;;;;8316906;28;20327;-66
2023/10/04 07:35:06;;;;;;;11.93;5.90;;;;;12.80;97484.00;;;;8315275;28;20244;-66
2023/10/04 07:39:15;;;;;;;10.40;5.10;;;;;12.90;97493.00;;;;8310400;28;20232;-66
2023/10/04 07:43:19;;;;;;;13.43;5.40;;;;;13.10;97487.00;;;;8315055;28;20725;-66
2023/10/04 07:47:22;;;;;;;6.57;4.65;;;;;13.30;97494.00;;;;8315046;28;20199;-66
2023/10/04 07:51:25;;;;;;;8.60;4.88;;;;;13.50;97502.00;;;;8314375;28;20253;-66
2023/10/04 07:55:30;;;;;;;10.05;4.85;;;;;13.60;97504.00;;;;8310944;28;20261;-66
2023/10/04 07:59:33;;;;;;;8.57;4.95;;;;;13.80;97509.00;;;;8310324;28;20295;-66
2023/10/04 08:03:36;;;;;;;9.02;4.30;;;;;14.00;97502.00;;;;8298011;28;20225;-66
2023/10/04 08:07:40;;;;;;;6.30;4.10;;;;;14.20;97499.00;;;;8309703;28;20244;-66
2023/10/04 08:11:45;;;;;;;8.57;4.03;;;;;14.40;97501.00;;;;8311229;28;20232;-66
2023/10/04 08:15:48;;;;;;;11.50;3.90;;;;;14.60;97509.00;;;;8300406;28;20285;-65
2023/10/04 08:19:51;;;;;;;5.60;3.58;;;;;14.90;97500.00;;;;8303625;28;20209;-65
2023/10/04 08:23:55;;;;;;;6.15;3.20;;;;;15.00;97498.00;;;;8305840;28;20209;-65
2023/10/04 08:28:00;;;;;;;6.00;3.42;;;;;15.20;97512.00;;;;8307700;28;20213;-66
2023/10/04 08:32:04;;;;;;;6.82;3.70;;;;;15.40;97517.00;;;;8300726;28;20255;-66
2023/10/04 08:36:10;;;;;;;5.55;3.08;;;;;15.60;97512.00;;;;8307159;28;20221;-66
2023/10/04 08:40:17;;;;;;;9.18;3.25;;;;;15.80;97519.00;;;;8304213;28;20201;-66
2023/10/04 08:44:22;;;;;;;6.88;3.08;;;;;16.00;97517.00;;;;8300041;28;20205;-63
2023/10/04 08:48:26;;;;;;;3.35;2.47;;;;;16.00;97516.00;;;;8300274;28;20281;-63
2023/10/04 08:52:36;;;;;;;5.63;2.40;;;;;15.90;97516.00;;;;8314249;28;20276;-63
2023/10/04 08:56:49;;;;;;;6.28;2.75;;;;;16.00;97501.00;;;;8312149;28;20659;-63
2023/10/04 09:00:53;;;;;;;5.20;2.83;;;;;16.20;97517.00;;;;8310850;28;20838;-63
2023/10/04 09:04:57;;;;;;;5.78;2.85;;;;;16.40;97517.00;;;;8306324;28;20205;-63
2023/10/04 09:09:01;;;;;;;5.68;2.60;;;;;16.70;97514.00;;;;8316111;28;20327;-63
2023/10/04 09:13:06;;;;;;;5.88;2.60;;;;;16.90;97503.00;;;;8311352;28;20886;-63
2023/10/04 09:17:14;;;;;;;4.88;2.50;;;;;17.30;97523.00;;;;8306489;28;20244;-63
2023/10/04 09:21:17;;;;;;;5.03;2.55;;;;;17.70;97511.00;;;;8314874;28;20198;-63
2023/10/04 09:25:21;;;;;;;5.78;2.75;;;;;18.00;97511.00;;;;8313607;28;20202;-63
2023/10/04 09:29:30;;;;;;;3.88;2.80;;;;;18.40;97512.00;;;;8320091;28;20304;-63
2023/10/04 09:33:35;;;;;;;3.72;2.50;;;;;18.80;97510.00;;;;8319475;28;20205;-63
2023/10/04 09:37:39;;;;;;;6.18;2.70;;;;;19.10;97505.00;;;;8318931;28;20292;-63
2023/10/04 09:41:43;;;;;;;5.47;2.58;;;;;19.60;97513.00;;;;8318821;28;20240;-63
2023/10/04 09:45:57;;;;;;;5.82;2.75;;;;;19.80;97511.00;;;;8318452;28;20640;-63
2023/10/04 09:50:01;;;;;;;5.60;2.70;;;;;20.00;97513.00;;;;8317505;28;20753;-63
2023/10/04 09:54:05;;;;;;;5.78;2.80;;;;;20.20;97502.00;;;;8318856;28;20212;-63
2023/10/04 09:58:13;;;;;;;8.05;2.60;;;;;20.20;97485.00;;;;8317249;28;20308;-63
2023/10/04 10:02:19;;;;;;;4.25;2.58;;;;;20.20;97485.00;;;;8319841;28;20275;-62
2023/10/04 10:06:26;;;;;;;4.88;2.17;;;;;19.50;97495.00;;;;8316844;28;20193;-63
2023/10/04 10:10:31;;;;;;;3.30;2.53;;;;;18.80;97492.00;;;;8316824;28;20240;-63
2023/10/04 10:14:35;;;;;;;5.30;2.90;;;;;18.30;97476.00;;;;8311554;28;20241;-62
2023/10/04 10:18:39;;;;;;;5.13;2.72;;;;;18.60;97481.00;;;;8310341;28;20297;-63
2023/10/04 10:23:16;;;;;;;2.65;1.90;;;;;19.40;97480.00;;;;8317142;28;20193;-63
2023/10/04 10:27:21;;;;;;;4.72;2.47;;;;;19.80;97488.00;;;;8316131;28;20304;-63
2023/10/04 10:31:27;;;;;;;4.13;2.47;;;;;20.10;97491.00;;;;8313989;28;20272;-63
2023/10/04 10:35:52;;;;;;;3.25;2.38;;;;;19.80;97485.00;;;;8317148;28;20217;-64
2023/10/04 10:40:02;;;;;;;3.30;2.17;;;;;19.80;97474.00;;;;8305860;28;21009;-63
2023/10/04 10:44:19;;;;;;;3.20;2.13;;;;;19.80;97482.00;;;;8307266;28;20282;-63
2023/10/04 10:48:33;;;;;;;3.17;1.80;;;;;19.90;97485.00;;;;8309518;28;20240;-65
2023/10/04 10:52:43;;;;;;;3.58;2.10;;;;;20.10;97475.00;;;;8313458;28;20317;-65
2023/10/04 10:56:47;;;;;;;5.15;1.90;;;;;20.10;97476.00;;;;8314173;28;20232;-65
2023/10/04 11:00:51;;;;;;;3.13;1.85;;;;;20.10;97467.00;;;;8313570;28;20229;-65
2023/10/04 11:04:55;;;;;;;2.85;1.80;;;;;20.10;97475.00;;;;8314514;28;20631;-65
2023/10/04 11:08:58;;;;;;;5.65;1.77;;;;;20.20;97471.00;;;;8314275;28;20723;-65
2023/10/04 11:13:04;;;;;;;2.40;1.70;;;;;20.10;97464.00;;;;8315379;28;20236;-65
2023/10/04 11:17:08;;;;;;;2.00;1.85;;;;;19.90;97459.00;;;;8312163;28;20212;-65
2023/10/04 11:21:12;;;;;;;1.85;1.58;;;;;19.80;97456.00;;;;8311385;28;20255;-65
2023/10/04 11:25:16;;;;;;;5.38;1.73;;;;;19.90;97452.00;;;;8309269;28;20197;-64
2023/10/04 11:29:21;;;;;;;1.83;1.60;;;;;19.80;97448.00;;;;8312183;28;20308;-65
2023/10/04 11:33:24;;;;;;;6.43;2.10;;;;;19.70;97442.00;;;;8303482;28;20204;-65
2023/10/04 11:37:28;;;;;;;3.53;1.95;;;;;19.80;97439.00;;;;8312425;28;21057;-65
2023/10/04 11:41:36;;;;;;;2.60;1.80;;;;;19.80;97439.00;;;;8306289;28;20221;-65
2023/10/04 11:45:40;;;;;;;3.40;1.80;;;;;19.60;97435.00;;;;8304001;28;20285;-65
2023/10/04 11:49:56;;;;;;;3.30;1.90;;;;;19.60;97439.00;;;;8310270;28;21015;-66
2023/10/04 11:54:02;;;;;;;3.80;1.67;;;;;19.50;97430.00;;;;8308035;28;20194;-64
2023/10/04 11:58:06;;;;;;;2.28;1.55;;;;;19.30;97428.00;;;;8317359;28;20197;-63
2023/10/04 12:02:11;;;;;;;3.63;2.40;;;;;19.20;97428.00;;;;8312456;28;20229;-64
2023/10/04 12:06:15;;;;;;;4.32;1.60;;;;;19.20;97419.00;;;;8321614;28;20229;-64
2023/10/04 12:10:19;;;;;;;3.05;1.70;;;;;19.30;97407.00;;;;8333224;28;20271;-64
2023/10/04 12:14:22;;;;;;;3.65;1.90;;;;;19.40;97406.00;;;;8332795;28;20200;-63
2023/10/04 12:18:30;;;;;;;1.85;1.52;;;;;19.40;97398.00;;;;8332265;28;20588;-63
2023/10/04 12:22:33;;;;;;;1.88;1.73;;;;;19.50;97399.00;;;;8332159;28;20281;-64
2023/10/04 12:26:36;;;;;;;1.95;1.60;;;;;19.60;97395.00;;;;8331861;28;20272;-64
2023/10/04 12:30:40;;;;;;;1.80;1.55;;;;;19.60;97394.00;;;;8330496;28;20308;-64
2023/10/04 12:34:44;;;;;;;2.60;1.75;;;;;19.50;97394.00;;;;8332640;28;20228;-64
2023/10/04 12:38:47;;;;;;;2.63;1.58;;;;;19.50;97384.00;;;;8332412;28;20212;-65
2023/10/04 12:42:52;;;;;;;3.55;1.73;;;;;19.50;97382.00;;;;8332467;28;20610;-64
2023/10/04 12:46:56;;;;;;;1.65;1.50;;;;;19.60;97381.00;;;;8331739;28;20233;-65
2023/10/04 12:51:02;;;;;;;1.58;1.48;;;;;19.70;97386.00;;;;8332238;28;20225;-64
2023/10/04 12:55:06;;;;;;;2.88;1.55;;;;;19.60;97389.00;;;;8332282;28;20233;-65
2023/10/04 12:59:10;;;;;;;2.22;2.03;;;;;19.60;97393.00;;;;8329929;28;20247;-64
2023/10/04 13:03:13;;;;;;;3.38;1.90;;;;;19.70;97384.00;;;;8335988;28;20221;-64
2023/10/04 13:07:19;;;;;;;2.40;1.80;;;;;19.80;97382.00;;;;8338011;28;20197;-65
2023/10/04 13:11:23;;;;;;;3.88;1.85;;;;;20.00;97383.00;;;;8337559;28;20625;-64
2023/10/04 13:15:29;;;;;;;3.97;1.73;;;;;20.10;97378.00;;;;8337647;28;20240;-65
2023/10/04 13:19:32;;;;;;;3.67;1.88;;;;;20.10;97380.00;;;;8338348;28;20229;-64
2023/10/04 13:23:37;;;;;;;2.13;1.63;;;;;19.80;97370.00;;;;8337601;28;20282;-65
2023/10/04 13:27:40;;;;;;;2.15;1.90;;;;;19.50;97386.00;;;;8337828;28;20273;-64
2023/10/04 13:31:43;;;;;;;6.25;1.95;;;;;19.50;97373.00;;;;8337732;28;20217;-64
2023/10/04 13:35:48;;;;;;;2.15;1.92;;;;;19.30;97369.00;;;;8336613;28;20199;-64
2023/10/04 13:39:54;;;;;;;1.60;1.50;;;;;19.40;97368.00;;;;8335289;28;20197;-64
2023/10/04 13:43:57;;;;;;;3.40;1.75;;;;;19.60;97370.00;;;;8336428;28;20198;-64
2023/10/04 13:48:07;;;;;;;1.50;1.40;;;;;19.60;97372.00;;;;8336387;28;20299;-64
2023/10/04 13:52:10;;;;;;;1.65;1.55;;;;;19.80;97366.00;;;;8336323;28;20221;-64
2023/10/04 13:56:15;;;;;;;1.95;1.83;;;;;19.80;97359.00;;;;8335585;28;20225;-64
2023/10/04 14:00:22;;;;;;;3.25;1.50;;;;;19.90;97365.00;;;;8336291;28;20674;-64
2023/10/04 14:04:26;;;;;;;1.65;1.52;;;;;20.10;97359.00;;;;8337100;28;20666;-64
2023/10/04 14:08:29;;;;;;;3.92;1.52;;;;;20.30;97360.00;;;;8335957;28;20275;-64
2023/10/04 14:12:33;;;;;;;1.98;1.65;;;;;20.40;97363.00;;;;8332975;28;20320;-64
2023/10/04 14:16:37;;;;;;;5.40;1.85;;;;;20.30;97363.00;;;;8333921;28;20193;-64
2023/10/04 14:20:41;;;;;;;3.47;1.48;;;;;20.10;97364.00;;;;8335700;28;20205;-64
2023/10/04 14:24:44;;;;;;;5.60;1.90;;;;;20.20;97356.00;;;;8335849;28;20200;-64
2023/10/04 14:28:49;;;;;;;2.70;1.58;;;;;20.10;97358.00;;;;8335103;28;20581;-64
2023/10/04 14:32:53;;;;;;;2.53;1.70;;;;;20.20;97354.00;;;;8335900;28;20630;-64
2023/10/04 14:36:56;;;;;;;2.55;2.08;;;;;20.30;97361.00;;;;8335689;28;20193;-63
2023/10/04 14:41:01;;;;;;;5.70;1.80;;;;;20.40;97355.00;;;;8334944;28;20200;-64
2023/10/04 14:45:08;;;;;;;2.88;1.67;;;;;20.40;97354.00;;;;8335122;28;20328;-64
2023/10/04 14:49:11;;;;;;;5.40;2.15;;;;;20.40;97360.00;;;;8335448;28;20186;-64
2023/10/04 14:53:14;;;;;;;3.88;1.55;;;;;20.40;97360.00;;;;8334827;28;20265;-64
2023/10/04 14:57:17;;;;;;;4.18;1.50;;;;;20.10;97354.00;;;;8334960;28;20650;-64
2023/10/04 15:01:21;;;;;;;2.13;1.80;;;;;19.90;97349.00;;;;8334331;28;20256;-64
2023/10/04 15:05:25;;;;;;;3.90;1.73;;;;;19.90;97351.00;;;;8333978;28;20280;-64
2023/10/04 15:09:28;;;;;;;3.47;1.48;;;;;19.80;97344.00;;;;8334409;28;20612;-63
2023/10/04 15:13:31;;;;;;;3.20;1.80;;;;;19.80;97346.00;;;;8332497;28;20225;-63
2023/10/04 15:17:37;;;;;;;1.63;1.50;;;;;19.80;97350.00;;;;8333637;28;20194;-63
2023/10/04 15:21:41;;;;;;;6.93;1.50;;;;;19.70;97345.00;;;;8334486;28;20205;-63
2023/10/04 15:25:44;;;;;;;3.33;1.92;;;;;19.50;97338.00;;;;8333468;28;20200;-64
2023/10/04 15:29:48;;;;;;;2.47;1.60;;;;;19.40;97333.00;;;;8334315;28;20232;-64
2023/10/04 15:33:54;;;;;;;5.03;1.70;;;;;19.20;97340.00;;;;8333855;28;20624;-64
2023/10/04 15:37:58;;;;;;;3.97;1.75;;;;;19.10;97330.00;;;;8333622;28;20197;-64
2023/10/04 15:42:03;;;;;;;5.70;1.90;;;;;19.00;97318.00;;;;8333751;28;20240;-64
2023/10/04 15:46:06;;;;;;;5.22;1.63;;;;;18.90;97328.00;;;;8332926;28;20193;-64
2023/10/04 15:50:11;;;;;;;3.35;1.52;;;;;18.80;97330.00;;;;8332927;28;20193;-64
2023/10/04 15:54:14;;;;;;;4.15;1.63;;;;;18.60;97335.00;;;;8333457;28;20327;-64
2023/10/04 15:58:17;;;;;;;2.25;1.58;;;;;18.40;97333.00;;;;8332727;28;20229;-64
2023/10/04 16:02:21;;;;;;;3.75;1.48;;;;;18.10;97326.00;;;;8331868;28;20233;-64
2023/10/04 16:06:26;;;;;;;4.05;1.73;;;;;17.80;97324.00;;;;8331971;28;20197;-64
2023/10/04 16:10:29;;;;;;;3.10;1.58;;;;;17.50;97325.00;;;;8332368;28;20197;-64
2023/10/04 16:14:32;;;;;;;4.50;1.75;;;;;17.10;97323.00;;;;8332382;28;20319;-64
2023/10/04 16:18:35;;;;;;;4.05;1.40;;;;;16.80;97318.00;;;;8331716;28;20193;-64
2023/10/04 16:22:40;;;;;;;1.63;1.52;;;;;16.50;97325.00;;;;8333577;28;20193;-64
2023/10/04 16:26:44;;;;;;;6.57;2.10;;;;;16.20;97338.00;;;;8330865;28;20595;-63
2023/10/04 16:30:47;;;;;;;2.85;1.65;;;;;15.80;97335.00;;;;8332309;28;20239;-64
2023/10/04 16:34:50;;;;;;;2.55;1.55;;;;;15.50;97343.00;;;;8332321;28;20225;-64
2023/10/04 16:38:55;;;;;;;3.10;1.63;;;;;15.30;97348.00;;;;8331448;28;20225;-64
2023/10/04 16:42:58;;;;;;;6.68;2.22;;;;;15.10;97354.00;;;;8332008;28;20205;-64
2023/10/04 16:47:04;;;;;;;4.80;1.60;;;;;14.80;97367.00;;;;8331069;28;20193;-64
2023/10/04 16:51:07;;;;;;;1.80;1.70;;;;;14.60;97366.00;;;;8331995;28;20240;-64
2023/10/04 16:55:13;;;;;;;3.70;1.83;;;;;14.30;97362.00;;;;8331892;28;20248;-64
2023/10/04 16:59:17;;;;;;;1.65;1.50;;;;;14.10;97364.00;;;;8331538;28;20292;-64
2023/10/04 17:03:20;;;;;;;4.78;1.50;;;;;13.90;97363.00;;;;8330981;28;20303;-64
2023/10/04 17:07:24;;;;;;;2.10;1.83;;;;;13.80;97365.00;;;;8331782;28;20228;-62
2023/10/04 17:11:28;;;;;;;3.15;1.88;;;;;13.60;97353.00;;;;8331222;28;20292;-63
2023/10/04 17:15:32;;;;;;;3.45;1.80;;;;;13.40;97356.00;;;;8330656;28;20201;-63
2023/10/04 17:19:35;;;;;;;4.10;2.05;;;;;13.30;97356.00;;;;8331701;28;20216;-63
2023/10/04 17:23:39;;;;;;;6.93;2.30;;;;;13.20;97358.00;;;;8330957;28;20233;-62
2023/10/04 17:27:43;;;;;;;4.72;2.70;;;;;13.10;97348.00;;;;8331676;28;20201;-63
2023/10/04 17:31:47;;;;;;;4.35;1.98;;;;;13.10;97350.00;;;;8331459;28;20322;-62
2023/10/04 17:35:50;;;;;;;4.78;2.30;;;;;13.00;97352.00;;;;8330528;28;20199;-62
2023/10/04 17:39:53;;;;;;;2.53;2.17;;;;;12.90;97350.00;;;;8330754;28;20538;-63
2023/10/04 17:43:58;;;;;;;3.55;2.10;;;;;12.90;97346.00;;;;8331420;28;20193;-63
2023/10/04 17:48:02;;;;;;;2.30;2.10;;;;;12.80;97347.00;;;;8333526;28;20283;-64
2023/10/04 17:52:05;;;;;;;4.40;2.38;;;;;12.90;97349.00;;;;8336888;28;20307;-63
2023/10/04 17:56:10;;;;;;;2.90;1.92;;;;;12.90;97354.00;;;;8336843;28;20201;-63
2023/10/04 18:00:15;;;;;;;5.40;1.80;;;;;12.90;97353.00;;;;8336107;28;20210;-64
2023/10/04 18:04:18;;;;;;;5.45;1.83;;;;;13.00;97351.00;;;;8337248;28;20263;-64
2023/10/04 18:08:23;;;;;;;2.40;2.03;;;;;13.10;97349.00;;;;8336005;28;20196;-64
2023/10/04 18:12:26;;;;;;;5.25;1.77;;;;;13.20;97345.00;;;;8336132;28;20263;-64
2023/10/04 18:16:32;;;;;;;5.38;1.75;;;;;13.20;97347.00;;;;8336463;28;20200;-64
2023/10/04 18:20:35;;;;;;;2.50;1.88;;;;;13.10;97342.00;;;;8335978;28;20232;-63
2023/10/04 18:24:39;;;;;;;4.25;1.90;;;;;12.90;97346.00;;;;8336462;28;20200;-64
2023/10/04 18:28:42;;;;;;;3.75;2.58;;;;;12.80;97343.00;;;;8335366;28;20196;-63
2023/10/04 18:32:46;;;;;;;6.13;3.03;;;;;12.60;97351.00;;;;8335434;28;20266;-63
2023/10/04 18:36:49;;;;;;;7.65;3.95;;;;;12.40;97356.00;;;;8335490;28;20197;-61
2023/10/04 18:40:53;;;;;;;6.10;3.75;;;;;12.30;97350.00;;;;8334701;28;20204;-62
2023/10/04 18:44:59;;;;;;;7.90;3.28;;;;;12.20;97359.00;;;;8335783;28;20236;-62
2023/10/04 18:49:05;;;;;;;7.45;3.45;;;;;12.00;97348.00;;;;8333790;28;20673;-61
2023/10/04 18:53:10;;;;;;;6.13;3.47;;;;;11.90;97355.00;;;;8335071;28;20220;-61
2023/10/04 18:57:13;;;;;;;9.77;3.45;;;;;11.70;97352.00;;;;8334144;28;20553;-62
2023/10/04 19:01:17;;;;;;;6.50;3.42;;;;;11.50;97351.00;;;;8333506;28;20311;-62
2023/10/04 19:05:21;;;;;;;13.90;6.57;;;;;11.40;97353.00;;;;8334387;28;20660;-62
2023/10/04 19:09:25;;;;;;;5.75;3.65;;;;;11.20;97359.00;;;;8333727;28;20287;-62
2023/10/04 19:13:28;;;;;;;8.25;4.15;;;;;11.10;97347.00;;;;8334222;28;20218;-62
2023/10/04 19:17:31;;;;;;;11.70;5.53;;;;;11.00;97359.00;;;;8334036;28;20206;-62
2023/10/04 19:21:37;;;;;;;10.65;4.20;;;;;10.90;97346.00;;;;8333509;28;20197;-64
2023/10/04 19:25:40;;;;;;;8.45;4.80;;;;;10.70;97361.00;;;;8333169;28;20196;-63
2023/10/04 19:29:43;;;;;;;14.15;5.28;;;;;10.50;97357.00;;;;8333421;28;20293;-64
2023/10/04 19:33:47;;;;;;;19.65;6.95;;;;;10.30;97343.00;;;;8334462;28;20665;-64
2023/10/04 19:37:51;;;;;;;16.23;5.45;;;;;10.20;97348.00;;;;8332551;28;20232;-64
2023/10/04 19:41:54;;;;;;;16.67;6.00;;;;;10.20;97346.00;;;;8334778;28;20291;-64
2023/10/04 19:45:59;;;;;;;16.77;6.38;;;;;10.10;97350.00;;;;8332168;28;20281;-64
2023/10/04 19:50:05;;;;;;;15.80;6.72;;;;;10.10;97364.00;;;;8333163;28;20195;-64
2023/10/04 19:54:10;;;;;;;10.15;4.25;;;;;10.00;97369.00;;;;8332933;28;20301;-64
2023/10/04 19:58:14;;;;;;;15.95;6.28;;;;;9.90;97366.00;;;;8332543;28;20658;-64
2023/10/04 20:02:17;;;;;;;15.13;6.10;;;;;9.90;97341.00;;;;8332973;28;20217;-64
2023/10/04 20:06:22;;;;;;;25.52;8.98;;;;;9.80;97335.00;;;;8332592;28;20201;-65
2023/10/04 20:10:32;;;;;;;14.90;5.22;;;;;9.70;97336.00;;;;8331538;28;20217;-65
2023/10/04 20:14:35;;;;;;;20.97;8.17;;;;;9.60;97330.00;;;;8332342;28;20622;-65
2023/10/04 20:18:39;;;;;;;11.13;5.23;;;;;9.60;97323.00;;;;8332739;28;20546;-64
2023/10/04 20:22:42;;;;;;;10.85;3.40;;;;;9.50;97321.00;;;;8332355;28;20257;-64